sensor_id;sensor_type;location;lat;lon;timestamp;temperature;humidity
8591;DHT22;4333;48.322;14.340;2023-05-02T00:00:36;12.40;99.90
8591;DHT22;4333;48.322;14.340;2023-05-02T00:03:03;12.40;99.90
8591;DHT22;4333;48.322;14.340;2023-05-02T00:05:30;12.40;99.90
8591;DHT22;4333;48.322;14.340;2023-05-02T00:07:58;12.40;99.90
8591;DHT22;4333;48.322;14.340;2023-05-02T00:10:26;12.40;99.90
8591;DHT22;4333;48.322;14.340;2023-05-02T00:12:51;12.40;99.90
8591;DHT22;4333;48.322;14.340;2023-05-02T00:15:17;12.40;99.90
8591;DHT22;4333;48.322;14.340;2023-05-02T00:17:45;12.40;99.90
8591;DHT22;4333;48.322;14.340;2023-05-02T00:20:14;12.40;99.90
8591;DHT22;4333;48.322;14.340;2023-05-02T00:22:40;12.40;99.90
8591;DHT22;4333;48.322;14.340;2023-05-02T00:25:09;12.40;99.90
8591;DHT22;4333;48.322;14.340;2023-05-02T00:27:37;12.40;99.90
8591;DHT22;4333;48.322;14.340;2023-05-02T00:30:04;12.40;99.90
8591;DHT22;4333;48.322;14.340;2023-05-02T00:32:32;12.30;99.90
8591;DHT22;4333;48.322;14.340;2023-05-02T00:35:00;12.30;99.90
8591;DHT22;4333;48.322;14.340;2023-05-02T00:37:26;12.30;99.90
8591;DHT22;4333;48.322;14.340;2023-05-02T00:39:54;12.40;99.90
8591;DHT22;4333;48.322;14.340;2023-05-02T00:42:20;12.40;99.90
8591;DHT22;4333;48.322;14.340;2023-05-02T00:44:46;12.40;99.90
8591;DHT22;4333;48.322;14.340;2023-05-02T00:47:17;12.40;99.90
8591;DHT22;4333;48.322;14.340;2023-05-02T00:49:43;12.40;99.90
8591;DHT22;4333;48.322;14.340;2023-05-02T00:52:08;12.50;99.90
8591;DHT22;4333;48.322;14.340;2023-05-02T00:54:36;12.50;99.90
8591;DHT22;4333;48.322;14.340;2023-05-02T00:57:03;12.50;99.90
8591;DHT22;4333;48.322;14.340;2023-05-02T00:59:33;12.50;99.90
8591;DHT22;4333;48.322;14.340;2023-05-02T01:02:24;12.50;99.90
8591;DHT22;4333;48.322;14.340;2023-05-02T01:05:14;12.50;99.90
8591;DHT22;4333;48.322;14.340;2023-05-02T01:10:54;12.50;99.90
8591;DHT22;4333;48.322;14.340;2023-05-02T01:13:33;12.50;99.90
8591;DHT22;4333;48.322;14.340;2023-05-02T01:16:00;12.50;99.90
8591;DHT22;4333;48.322;14.340;2023-05-02T01:18:30;12.50;99.90
8591;DHT22;4333;48.322;14.340;2023-05-02T01:21:00;12.50;99.90
8591;DHT22;4333;48.322;14.340;2023-05-02T01:24:00;12.50;99.90
8591;DHT22;4333;48.322;14.340;2023-05-02T01:29:07;12.50;99.90
8591;DHT22;4333;48.322;14.340;2023-05-02T01:31:35;12.50;99.90
8591;DHT22;4333;48.322;14.340;2023-05-02T01:34:04;12.50;99.90
8591;DHT22;4333;48.322;14.340;2023-05-02T01:36:32;12.50;99.90
8591;DHT22;4333;48.322;14.340;2023-05-02T01:39:00;12.50;99.90
8591;DHT22;4333;48.322;14.340;2023-05-02T01:41:30;12.50;99.90
8591;DHT22;4333;48.322;14.340;2023-05-02T01:43:58;12.50;99.90
8591;DHT22;4333;48.322;14.340;2023-05-02T01:46:29;12.50;99.90
8591;DHT22;4333;48.322;14.340;2023-05-02T01:48:56;12.40;99.90
8591;DHT22;4333;48.322;14.340;2023-05-02T01:51:30;12.40;99.90
8591;DHT22;4333;48.322;14.340;2023-05-02T01:54:04;12.40;99.90
8591;DHT22;4333;48.322;14.340;2023-05-02T01:56:34;12.30;99.90
8591;DHT22;4333;48.322;14.340;2023-05-02T01:59:04;12.30;99.90
8591;DHT22;4333;48.322;14.340;2023-05-02T02:01:30;12.30;99.90
8591;DHT22;4333;48.322;14.340;2023-05-02T02:03:57;12.30;99.90
8591;DHT22;4333;48.322;14.340;2023-05-02T02:06:24;12.30;99.90
8591;DHT22;4333;48.322;14.340;2023-05-02T02:08:53;12.30;99.90
8591;DHT22;4333;48.322;14.340;2023-05-02T02:11:33;12.30;99.90
8591;DHT22;4333;48.322;14.340;2023-05-02T02:14:19;12.30;99.90
8591;DHT22;4333;48.322;14.340;2023-05-02T02:16:45;12.30;99.90
8591;DHT22;4333;48.322;14.340;2023-05-02T02:19:13;12.30;99.90
8591;DHT22;4333;48.322;14.340;2023-05-02T02:21:42;12.30;99.90
8591;DHT22;4333;48.322;14.340;2023-05-02T02:24:08;12.30;99.90
8591;DHT22;4333;48.322;14.340;2023-05-02T02:26:37;12.30;99.90
8591;DHT22;4333;48.322;14.340;2023-05-02T02:29:05;12.20;99.90
8591;DHT22;4333;48.322;14.340;2023-05-02T02:31:32;12.30;99.90
8591;DHT22;4333;48.322;14.340;2023-05-02T02:33:58;12.30;99.90
8591;DHT22;4333;48.322;14.340;2023-05-02T02:36:38;12.30;99.90
8591;DHT22;4333;48.322;14.340;2023-05-02T02:45:00;12.30;99.90
8591;DHT22;4333;48.322;14.340;2023-05-02T02:47:40;12.30;99.90
8591;DHT22;4333;48.322;14.340;2023-05-02T02:53:03;12.30;99.90
8591;DHT22;4333;48.322;14.340;2023-05-02T03:00:58;12.40;99.90
8591;DHT22;4333;48.322;14.340;2023-05-02T03:03:28;12.30;99.90
8591;DHT22;4333;48.322;14.340;2023-05-02T03:05:55;12.40;99.90
8591;DHT22;4333;48.322;14.340;2023-05-02T03:08:21;12.40;99.90
8591;DHT22;4333;48.322;14.340;2023-05-02T03:10:50;12.40;99.90
8591;DHT22;4333;48.322;14.340;2023-05-02T03:13:18;12.40;99.90
8591;DHT22;4333;48.322;14.340;2023-05-02T03:18:18;12.40;99.90
8591;DHT22;4333;48.322;14.340;2023-05-02T03:20:44;12.40;99.90
8591;DHT22;4333;48.322;14.340;2023-05-02T03:23:10;12.40;99.90
8591;DHT22;4333;48.322;14.340;2023-05-02T03:25:35;12.40;99.90
8591;DHT22;4333;48.322;14.340;2023-05-02T03:28:01;12.40;99.90
8591;DHT22;4333;48.322;14.340;2023-05-02T03:30:27;12.40;99.90
8591;DHT22;4333;48.322;14.340;2023-05-02T03:32:53;12.30;99.90
8591;DHT22;4333;48.322;14.340;2023-05-02T03:35:19;12.40;99.90
8591;DHT22;4333;48.322;14.340;2023-05-02T03:37:44;12.40;99.90
8591;DHT22;4333;48.322;14.340;2023-05-02T03:40:10;12.40;99.90
8591;DHT22;4333;48.322;14.340;2023-05-02T03:42:36;12.40;99.90
8591;DHT22;4333;48.322;14.340;2023-05-02T03:45:09;12.40;99.90
8591;DHT22;4333;48.322;14.340;2023-05-02T03:47:37;12.50;99.90
8591;DHT22;4333;48.322;14.340;2023-05-02T03:50:03;12.50;99.90
8591;DHT22;4333;48.322;14.340;2023-05-02T03:52:31;12.50;99.90
8591;DHT22;4333;48.322;14.340;2023-05-02T03:54:57;12.50;99.90
8591;DHT22;4333;48.322;14.340;2023-05-02T03:57:24;12.40;99.90
8591;DHT22;4333;48.322;14.340;2023-05-02T03:59:50;12.50;99.90
8591;DHT22;4333;48.322;14.340;2023-05-02T04:02:16;12.50;99.90
8591;DHT22;4333;48.322;14.340;2023-05-02T04:04:41;12.50;99.90
8591;DHT22;4333;48.322;14.340;2023-05-02T04:07:07;12.50;99.90
8591;DHT22;4333;48.322;14.340;2023-05-02T04:09:36;12.60;99.90
8591;DHT22;4333;48.322;14.340;2023-05-02T04:12:01;12.50;99.90
8591;DHT22;4333;48.322;14.340;2023-05-02T04:14:27;12.50;99.90
8591;DHT22;4333;48.322;14.340;2023-05-02T04:16:53;12.50;99.90
8591;DHT22;4333;48.322;14.340;2023-05-02T04:19:21;12.50;99.90
8591;DHT22;4333;48.322;14.340;2023-05-02T04:21:46;12.50;99.90
8591;DHT22;4333;48.322;14.340;2023-05-02T04:24:12;12.50;99.90
8591;DHT22;4333;48.322;14.340;2023-05-02T04:26:41;12.50;99.90
8591;DHT22;4333;48.322;14.340;2023-05-02T04:29:06;12.50;99.90
8591;DHT22;4333;48.322;14.340;2023-05-02T04:31:32;12.50;99.90
8591;DHT22;4333;48.322;14.340;2023-05-02T04:33:58;12.50;99.90
8591;DHT22;4333;48.322;14.340;2023-05-02T04:36:24;12.50;99.90
8591;DHT22;4333;48.322;14.340;2023-05-02T04:38:53;12.50;99.90
8591;DHT22;4333;48.322;14.340;2023-05-02T04:41:19;12.50;99.90
8591;DHT22;4333;48.322;14.340;2023-05-02T04:43:46;12.50;99.90
8591;DHT22;4333;48.322;14.340;2023-05-02T04:46:11;12.40;99.90
8591;DHT22;4333;48.322;14.340;2023-05-02T04:48:37;12.40;99.90
8591;DHT22;4333;48.322;14.340;2023-05-02T04:51:07;12.40;99.90
8591;DHT22;4333;48.322;14.340;2023-05-02T04:53:36;12.40;99.90
8591;DHT22;4333;48.322;14.340;2023-05-02T04:56:06;12.40;99.90
8591;DHT22;4333;48.322;14.340;2023-05-02T04:58:32;12.50;99.90
8591;DHT22;4333;48.322;14.340;2023-05-02T05:01:04;12.50;99.90
8591;DHT22;4333;48.322;14.340;2023-05-02T05:03:30;12.50;99.90
8591;DHT22;4333;48.322;14.340;2023-05-02T05:05:58;12.50;99.90
8591;DHT22;4333;48.322;14.340;2023-05-02T05:08:23;12.50;99.90
8591;DHT22;4333;48.322;14.340;2023-05-02T05:10:49;12.50;99.90
8591;DHT22;4333;48.322;14.340;2023-05-02T05:13:15;12.50;99.90
8591;DHT22;4333;48.322;14.340;2023-05-02T05:15:43;12.50;99.90
8591;DHT22;4333;48.322;14.340;2023-05-02T05:18:09;12.50;99.90
8591;DHT22;4333;48.322;14.340;2023-05-02T05:20:34;12.50;99.90
8591;DHT22;4333;48.322;14.340;2023-05-02T05:23:00;12.40;99.90
8591;DHT22;4333;48.322;14.340;2023-05-02T05:25:26;12.40;99.90
8591;DHT22;4333;48.322;14.340;2023-05-02T05:27:52;12.30;99.90
8591;DHT22;4333;48.322;14.340;2023-05-02T05:30:19;12.40;99.90
8591;DHT22;4333;48.322;14.340;2023-05-02T05:32:45;12.50;99.90
8591;DHT22;4333;48.322;14.340;2023-05-02T05:35:11;12.50;99.90
8591;DHT22;4333;48.322;14.340;2023-05-02T05:37:36;12.50;99.90
8591;DHT22;4333;48.322;14.340;2023-05-02T05:40:09;12.60;99.90
8591;DHT22;4333;48.322;14.340;2023-05-02T05:42:35;12.60;99.90
8591;DHT22;4333;48.322;14.340;2023-05-02T05:45:00;12.60;99.90
8591;DHT22;4333;48.322;14.340;2023-05-02T05:47:26;12.60;99.90
8591;DHT22;4333;48.322;14.340;2023-05-02T05:49:53;12.60;99.90
8591;DHT22;4333;48.322;14.340;2023-05-02T05:52:19;12.70;99.90
8591;DHT22;4333;48.322;14.340;2023-05-02T05:54:45;12.70;99.90
8591;DHT22;4333;48.322;14.340;2023-05-02T05:57:11;12.70;99.90
8591;DHT22;4333;48.322;14.340;2023-05-02T05:59:36;12.70;99.90
8591;DHT22;4333;48.322;14.340;2023-05-02T06:02:02;12.80;99.90
8591;DHT22;4333;48.322;14.340;2023-05-02T06:04:29;12.80;99.90
8591;DHT22;4333;48.322;14.340;2023-05-02T06:06:54;12.90;99.90
8591;DHT22;4333;48.322;14.340;2023-05-02T06:09:21;12.90;99.90
8591;DHT22;4333;48.322;14.340;2023-05-02T06:11:47;12.90;99.90
8591;DHT22;4333;48.322;14.340;2023-05-02T06:14:15;12.90;99.90
8591;DHT22;4333;48.322;14.340;2023-05-02T06:16:41;13.00;99.90
8591;DHT22;4333;48.322;14.340;2023-05-02T06:19:08;13.00;99.90
8591;DHT22;4333;48.322;14.340;2023-05-02T06:21:36;13.00;99.90
8591;DHT22;4333;48.322;14.340;2023-05-02T06:24:02;13.00;99.90
8591;DHT22;4333;48.322;14.340;2023-05-02T06:26:31;13.10;99.90
8591;DHT22;4333;48.322;14.340;2023-05-02T06:28:56;13.10;99.90
8591;DHT22;4333;48.322;14.340;2023-05-02T06:31:22;13.00;99.90
8591;DHT22;4333;48.322;14.340;2023-05-02T06:33:51;13.00;99.90
8591;DHT22;4333;48.322;14.340;2023-05-02T06:36:19;13.10;99.90
8591;DHT22;4333;48.322;14.340;2023-05-02T06:38:45;13.10;99.90
8591;DHT22;4333;48.322;14.340;2023-05-02T06:41:12;13.30;99.90
8591;DHT22;4333;48.322;14.340;2023-05-02T06:43:41;13.30;99.90
8591;DHT22;4333;48.322;14.340;2023-05-02T06:46:07;13.40;99.90
8591;DHT22;4333;48.322;14.340;2023-05-02T06:48:36;13.50;99.90
8591;DHT22;4333;48.322;14.340;2023-05-02T06:51:04;13.50;99.90
8591;DHT22;4333;48.322;14.340;2023-05-02T06:53:31;13.50;99.90
8591;DHT22;4333;48.322;14.340;2023-05-02T06:56:00;13.50;99.90
8591;DHT22;4333;48.322;14.340;2023-05-02T06:58:29;13.60;99.90
8591;DHT22;4333;48.322;14.340;2023-05-02T07:01:00;13.50;99.70
8591;DHT22;4333;48.322;14.340;2023-05-02T07:03:28;13.70;99.90
8591;DHT22;4333;48.322;14.340;2023-05-02T07:05:55;13.70;99.20
8591;DHT22;4333;48.322;14.340;2023-05-02T07:08:23;13.50;96.90
8591;DHT22;4333;48.322;14.340;2023-05-02T07:10:52;13.40;99.60
8591;DHT22;4333;48.322;14.340;2023-05-02T07:13:20;13.60;99.90
8591;DHT22;4333;48.322;14.340;2023-05-02T07:15:46;13.70;99.70
8591;DHT22;4333;48.322;14.340;2023-05-02T07:18:12;14.00;98.60
8591;DHT22;4333;48.322;14.340;2023-05-02T07:20:40;14.10;96.50
8591;DHT22;4333;48.322;14.340;2023-05-02T07:23:08;14.10;93.60
8591;DHT22;4333;48.322;14.340;2023-05-02T07:25:35;14.00;91.50
8591;DHT22;4333;48.322;14.340;2023-05-02T07:28:01;14.00;92.50
8591;DHT22;4333;48.322;14.340;2023-05-02T07:30:27;14.00;93.30
8591;DHT22;4333;48.322;14.340;2023-05-02T07:32:56;14.20;93.00
8591;DHT22;4333;48.322;14.340;2023-05-02T07:35:21;14.40;91.30
8591;DHT22;4333;48.322;14.340;2023-05-02T07:37:47;14.40;90.00
8591;DHT22;4333;48.322;14.340;2023-05-02T07:40:13;14.60;85.60
8591;DHT22;4333;48.322;14.340;2023-05-02T07:42:39;14.50;87.50
8591;DHT22;4333;48.322;14.340;2023-05-02T07:45:09;14.70;85.10
8591;DHT22;4333;48.322;14.340;2023-05-02T07:47:35;14.60;78.00
8591;DHT22;4333;48.322;14.340;2023-05-02T07:50:01;14.30;81.20
8591;DHT22;4333;48.322;14.340;2023-05-02T07:52:31;14.40;83.10
8591;DHT22;4333;48.322;14.340;2023-05-02T07:54:57;14.60;79.90
8591;DHT22;4333;48.322;14.340;2023-05-02T07:57:22;14.40;77.70
8591;DHT22;4333;48.322;14.340;2023-05-02T07:59:49;14.50;82.50
8591;DHT22;4333;48.322;14.340;2023-05-02T08:02:15;14.50;80.90
8591;DHT22;4333;48.322;14.340;2023-05-02T08:04:45;14.70;83.30
8591;DHT22;4333;48.322;14.340;2023-05-02T08:07:11;14.90;79.30
8591;DHT22;4333;48.322;14.340;2023-05-02T08:09:45;15.10;75.80
8591;DHT22;4333;48.322;14.340;2023-05-02T08:12:11;15.10;66.70
8591;DHT22;4333;48.322;14.340;2023-05-02T08:14:37;15.40;68.10
8591;DHT22;4333;48.322;14.340;2023-05-02T08:17:02;15.70;68.70
8591;DHT22;4333;48.322;14.340;2023-05-02T08:19:29;15.50;64.90
8591;DHT22;4333;48.322;14.340;2023-05-02T08:21:58;15.70;64.10
8591;DHT22;4333;48.322;14.340;2023-05-02T08:24:27;15.60;61.60
8591;DHT22;4333;48.322;14.340;2023-05-02T08:26:55;15.60;59.50
8591;DHT22;4333;48.322;14.340;2023-05-02T08:29:23;15.80;61.70
8591;DHT22;4333;48.322;14.340;2023-05-02T08:31:49;16.10;60.00
8591;DHT22;4333;48.322;14.340;2023-05-02T08:34:15;16.30;59.40
8591;DHT22;4333;48.322;14.340;2023-05-02T08:36:41;16.30;53.60
8591;DHT22;4333;48.322;14.340;2023-05-02T08:39:08;15.80;54.80
8591;DHT22;4333;48.322;14.340;2023-05-02T08:41:38;15.90;57.00
8591;DHT22;4333;48.322;14.340;2023-05-02T08:44:05;16.00;56.40
8591;DHT22;4333;48.322;14.340;2023-05-02T08:46:35;16.20;55.60
8591;DHT22;4333;48.322;14.340;2023-05-02T08:49:01;16.40;53.70
8591;DHT22;4333;48.322;14.340;2023-05-02T08:51:29;16.70;53.80
8591;DHT22;4333;48.322;14.340;2023-05-02T08:53:57;16.80;50.90
8591;DHT22;4333;48.322;14.340;2023-05-02T08:56:25;16.60;43.80
8591;DHT22;4333;48.322;14.340;2023-05-02T08:58:56;16.20;45.90
8591;DHT22;4333;48.322;14.340;2023-05-02T09:01:22;16.30;47.20
8591;DHT22;4333;48.322;14.340;2023-05-02T09:03:48;16.60;45.20
8591;DHT22;4333;48.322;14.340;2023-05-02T09:06:19;16.10;44.80
8591;DHT22;4333;48.322;14.340;2023-05-02T09:08:47;16.30;47.30
8591;DHT22;4333;48.322;14.340;2023-05-02T09:11:14;16.20;47.00
8591;DHT22;4333;48.322;14.340;2023-05-02T09:16:15;16.70;47.00
8591;DHT22;4333;48.322;14.340;2023-05-02T09:18:46;16.30;44.90
8591;DHT22;4333;48.322;14.340;2023-05-02T09:23:45;15.90;47.00
8591;DHT22;4333;48.322;14.340;2023-05-02T09:26:17;15.80;46.70
8591;DHT22;4333;48.322;14.340;2023-05-02T09:28:51;15.90;48.40
8591;DHT22;4333;48.322;14.340;2023-05-02T09:31:28;15.80;46.40
8591;DHT22;4333;48.322;14.340;2023-05-02T09:34:08;15.90;48.60
8591;DHT22;4333;48.322;14.340;2023-05-02T09:36:43;16.00;46.10
8591;DHT22;4333;48.322;14.340;2023-05-02T09:39:13;16.00;45.60
8591;DHT22;4333;48.322;14.340;2023-05-02T09:41:47;16.10;45.60
8591;DHT22;4333;48.322;14.340;2023-05-02T09:44:16;16.00;42.00
8591;DHT22;4333;48.322;14.340;2023-05-02T09:47:03;16.10;43.60
8591;DHT22;4333;48.322;14.340;2023-05-02T09:49:44;16.30;38.90
8591;DHT22;4333;48.322;14.340;2023-05-02T09:52:15;16.50;39.90
8591;DHT22;4333;48.322;14.340;2023-05-02T09:54:44;17.00;41.10
8591;DHT22;4333;48.322;14.340;2023-05-02T09:57:10;17.40;36.20
8591;DHT22;4333;48.322;14.340;2023-05-02T09:59:38;17.60;32.90
8591;DHT22;4333;48.322;14.340;2023-05-02T10:02:05;17.00;32.80
8591;DHT22;4333;48.322;14.340;2023-05-02T10:04:34;16.90;36.00
8591;DHT22;4333;48.322;14.340;2023-05-02T10:07:01;17.20;34.20
8591;DHT22;4333;48.322;14.340;2023-05-02T10:09:28;17.50;33.40
8591;DHT22;4333;48.322;14.340;2023-05-02T10:12:00;17.80;28.80
8591;DHT22;4333;48.322;14.340;2023-05-02T10:14:29;17.40;28.10
8591;DHT22;4333;48.322;14.340;2023-05-02T10:17:04;17.50;29.40
8591;DHT22;4333;48.322;14.340;2023-05-02T10:22:35;17.60;25.10
8591;DHT22;4333;48.322;14.340;2023-05-02T10:25:04;17.20;27.60
8591;DHT22;4333;48.322;14.340;2023-05-02T10:27:34;17.00;27.20
8591;DHT22;4333;48.322;14.340;2023-05-02T10:30:00;17.00;28.50
8591;DHT22;4333;48.322;14.340;2023-05-02T10:32:28;17.20;29.50
8591;DHT22;4333;48.322;14.340;2023-05-02T10:35:05;17.50;29.30
8591;DHT22;4333;48.322;14.340;2023-05-02T10:37:35;17.60;27.50
8591;DHT22;4333;48.322;14.340;2023-05-02T10:40:03;17.70;26.60
8591;DHT22;4333;48.322;14.340;2023-05-02T10:42:31;17.50;26.50
8591;DHT22;4333;48.322;14.340;2023-05-02T10:45:00;17.70;27.70
8591;DHT22;4333;48.322;14.340;2023-05-02T10:47:30;17.90;24.70
8591;DHT22;4333;48.322;14.340;2023-05-02T10:50:00;17.80;22.50
8591;DHT22;4333;48.322;14.340;2023-05-02T10:52:37;17.80;26.70
8591;DHT22;4333;48.322;14.340;2023-05-02T10:55:20;17.80;26.70
8591;DHT22;4333;48.322;14.340;2023-05-02T11:00:31;17.40;26.40
8591;DHT22;4333;48.322;14.340;2023-05-02T11:02:58;17.30;26.50
8591;DHT22;4333;48.322;14.340;2023-05-02T11:05:25;17.40;27.80
8591;DHT22;4333;48.322;14.340;2023-05-02T11:10:42;16.90;28.80
8591;DHT22;4333;48.322;14.340;2023-05-02T11:13:10;16.90;30.00
8591;DHT22;4333;48.322;14.340;2023-05-02T11:20:34;17.50;30.40
8591;DHT22;4333;48.322;14.340;2023-05-02T11:25:42;17.40;28.20
8591;DHT22;4333;48.322;14.340;2023-05-02T11:34:02;17.00;30.90
8591;DHT22;4333;48.322;14.340;2023-05-02T11:36:33;16.60;31.80
8591;DHT22;4333;48.322;14.340;2023-05-02T11:39:00;16.50;37.00
8591;DHT22;4333;48.322;14.340;2023-05-02T11:41:42;16.50;42.60
8591;DHT22;4333;48.322;14.340;2023-05-02T11:44:10;16.60;48.80
8591;DHT22;4333;48.322;14.340;2023-05-02T11:46:39;16.60;49.10
8591;DHT22;4333;48.322;14.340;2023-05-02T11:49:07;16.80;53.50
8591;DHT22;4333;48.322;14.340;2023-05-02T11:51:34;16.90;55.20
8591;DHT22;4333;48.322;14.340;2023-05-02T11:53:59;16.90;58.10
8591;DHT22;4333;48.322;14.340;2023-05-02T11:56:29;17.00;64.10
8591;DHT22;4333;48.322;14.340;2023-05-02T11:59:03;17.00;55.30
8591;DHT22;4333;48.322;14.340;2023-05-02T12:01:29;16.80;50.50
8591;DHT22;4333;48.322;14.340;2023-05-02T12:04:07;16.90;59.20
8591;DHT22;4333;48.322;14.340;2023-05-02T12:06:33;16.90;54.70
8591;DHT22;4333;48.322;14.340;2023-05-02T12:09:12;16.90;48.10
8591;DHT22;4333;48.322;14.340;2023-05-02T12:11:38;16.60;45.20
8591;DHT22;4333;48.322;14.340;2023-05-02T12:14:06;16.00;50.40
8591;DHT22;4333;48.322;14.340;2023-05-02T12:16:32;16.10;52.20
8591;DHT22;4333;48.322;14.340;2023-05-02T12:19:03;16.10;49.70
8591;DHT22;4333;48.322;14.340;2023-05-02T12:21:30;16.00;47.40
8591;DHT22;4333;48.322;14.340;2023-05-02T12:24:00;15.80;51.00
8591;DHT22;4333;48.322;14.340;2023-05-02T12:26:26;15.80;54.40
8591;DHT22;4333;48.322;14.340;2023-05-02T12:28:57;15.90;68.60
8591;DHT22;4333;48.322;14.340;2023-05-02T12:31:24;15.90;64.80
8591;DHT22;4333;48.322;14.340;2023-05-02T12:33:58;16.10;71.60
8591;DHT22;4333;48.322;14.340;2023-05-02T12:36:25;16.10;69.30
8591;DHT22;4333;48.322;14.340;2023-05-02T12:38:57;16.20;72.20
8591;DHT22;4333;48.322;14.340;2023-05-02T12:41:37;16.30;82.80
8591;DHT22;4333;48.322;14.340;2023-05-02T12:44:04;16.30;84.00
8591;DHT22;4333;48.322;14.340;2023-05-02T12:46:30;16.20;80.00
8591;DHT22;4333;48.322;14.340;2023-05-02T12:51:28;15.90;90.10
8591;DHT22;4333;48.322;14.340;2023-05-02T12:53:55;16.00;94.30
8591;DHT22;4333;48.322;14.340;2023-05-02T12:56:21;15.90;95.80
8591;DHT22;4333;48.322;14.340;2023-05-02T12:58:48;16.00;99.40
8591;DHT22;4333;48.322;14.340;2023-05-02T13:01:15;16.00;99.90
8591;DHT22;4333;48.322;14.340;2023-05-02T13:03:42;16.00;99.90
8591;DHT22;4333;48.322;14.340;2023-05-02T13:06:10;15.90;99.90
8591;DHT22;4333;48.322;14.340;2023-05-02T13:08:38;15.00;99.90
8591;DHT22;4333;48.322;14.340;2023-05-02T13:11:08;14.60;99.90
8591;DHT22;4333;48.322;14.340;2023-05-02T13:13:34;14.40;99.90
8591;DHT22;4333;48.322;14.340;2023-05-02T13:16:01;14.20;99.90
8591;DHT22;4333;48.322;14.340;2023-05-02T13:18:29;14.20;99.90
8591;DHT22;4333;48.322;14.340;2023-05-02T13:20:56;14.20;99.90
8591;DHT22;4333;48.322;14.340;2023-05-02T13:23:24;14.30;99.90
8591;DHT22;4333;48.322;14.340;2023-05-02T13:25:49;14.40;99.90
8591;DHT22;4333;48.322;14.340;2023-05-02T13:28:15;14.50;99.90
8591;DHT22;4333;48.322;14.340;2023-05-02T13:30:42;14.50;99.90
8591;DHT22;4333;48.322;14.340;2023-05-02T13:33:08;14.50;99.90
8591;DHT22;4333;48.322;14.340;2023-05-02T13:35:36;14.50;99.90
8591;DHT22;4333;48.322;14.340;2023-05-02T13:38:02;14.60;99.90
8591;DHT22;4333;48.322;14.340;2023-05-02T13:40:28;14.80;99.90
8591;DHT22;4333;48.322;14.340;2023-05-02T13:42:54;15.00;99.90
8591;DHT22;4333;48.322;14.340;2023-05-02T13:45:23;15.20;99.90
8591;DHT22;4333;48.322;14.340;2023-05-02T13:47:48;15.40;99.90
8591;DHT22;4333;48.322;14.340;2023-05-02T13:50:14;15.50;99.90
8591;DHT22;4333;48.322;14.340;2023-05-02T13:52:40;15.50;99.90
8591;DHT22;4333;48.322;14.340;2023-05-02T13:55:06;15.50;99.90
8591;DHT22;4333;48.322;14.340;2023-05-02T13:57:34;15.50;99.90
8591;DHT22;4333;48.322;14.340;2023-05-02T14:00:03;15.50;99.90
8591;DHT22;4333;48.322;14.340;2023-05-02T14:02:29;15.60;99.90
8591;DHT22;4333;48.322;14.340;2023-05-02T14:04:57;15.60;99.90
8591;DHT22;4333;48.322;14.340;2023-05-02T14:07:23;15.70;99.90
8591;DHT22;4333;48.322;14.340;2023-05-02T14:09:53;15.70;99.90
8591;DHT22;4333;48.322;14.340;2023-05-02T14:12:24;15.80;99.90
8591;DHT22;4333;48.322;14.340;2023-05-02T14:14:50;15.70;99.90
8591;DHT22;4333;48.322;14.340;2023-05-02T14:17:16;15.70;99.90
8591;DHT22;4333;48.322;14.340;2023-05-02T14:19:41;15.60;99.90
8591;DHT22;4333;48.322;14.340;2023-05-02T14:22:07;15.50;99.90
8591;DHT22;4333;48.322;14.340;2023-05-02T14:24:35;15.50;99.90
8591;DHT22;4333;48.322;14.340;2023-05-02T14:27:02;15.40;99.90
8591;DHT22;4333;48.322;14.340;2023-05-02T14:29:29;15.40;99.90
8591;DHT22;4333;48.322;14.340;2023-05-02T14:31:55;15.40;99.90
8591;DHT22;4333;48.322;14.340;2023-05-02T14:34:23;15.60;99.90
8591;DHT22;4333;48.322;14.340;2023-05-02T14:36:51;15.50;99.90
8591;DHT22;4333;48.322;14.340;2023-05-02T14:39:19;15.50;99.90
8591;DHT22;4333;48.322;14.340;2023-05-02T14:41:46;15.20;99.90
8591;DHT22;4333;48.322;14.340;2023-05-02T14:44:12;15.30;99.90
8591;DHT22;4333;48.322;14.340;2023-05-02T14:46:38;15.20;99.90
8591;DHT22;4333;48.322;14.340;2023-05-02T14:49:06;15.10;99.90
8591;DHT22;4333;48.322;14.340;2023-05-02T14:51:32;15.10;99.90
8591;DHT22;4333;48.322;14.340;2023-05-02T14:54:00;15.00;99.90
8591;DHT22;4333;48.322;14.340;2023-05-02T14:56:26;15.00;99.90
8591;DHT22;4333;48.322;14.340;2023-05-02T14:58:52;15.00;99.90
8591;DHT22;4333;48.322;14.340;2023-05-02T15:01:19;15.00;99.90
8591;DHT22;4333;48.322;14.340;2023-05-02T15:03:45;15.00;99.90
8591;DHT22;4333;48.322;14.340;2023-05-02T15:06:14;14.90;99.90
8591;DHT22;4333;48.322;14.340;2023-05-02T15:08:40;14.90;99.90
8591;DHT22;4333;48.322;14.340;2023-05-02T15:11:08;14.80;99.90
8591;DHT22;4333;48.322;14.340;2023-05-02T15:13:37;14.80;99.90
8591;DHT22;4333;48.322;14.340;2023-05-02T15:16:05;14.90;99.90
8591;DHT22;4333;48.322;14.340;2023-05-02T15:18:30;14.90;99.90
8591;DHT22;4333;48.322;14.340;2023-05-02T15:20:58;15.10;99.90
8591;DHT22;4333;48.322;14.340;2023-05-02T15:23:24;15.20;99.90
8591;DHT22;4333;48.322;14.340;2023-05-02T15:25:52;15.30;99.90
8591;DHT22;4333;48.322;14.340;2023-05-02T15:28:18;15.30;99.90
8591;DHT22;4333;48.322;14.340;2023-05-02T15:30:44;15.40;99.90
8591;DHT22;4333;48.322;14.340;2023-05-02T15:33:10;15.40;99.90
8591;DHT22;4333;48.322;14.340;2023-05-02T15:35:37;15.50;99.90
8591;DHT22;4333;48.322;14.340;2023-05-02T15:38:03;15.50;99.90
8591;DHT22;4333;48.322;14.340;2023-05-02T15:40:29;15.50;99.90
8591;DHT22;4333;48.322;14.340;2023-05-02T15:42:54;15.50;99.90
8591;DHT22;4333;48.322;14.340;2023-05-02T15:45:20;15.60;99.90
8591;DHT22;4333;48.322;14.340;2023-05-02T15:47:49;15.20;97.90
8591;DHT22;4333;48.322;14.340;2023-05-02T15:50:18;15.00;95.70
8591;DHT22;4333;48.322;14.340;2023-05-02T15:52:46;14.90;99.90
8591;DHT22;4333;48.322;14.340;2023-05-02T15:55:12;15.00;99.90
8591;DHT22;4333;48.322;14.340;2023-05-02T15:57:38;15.10;99.90
8591;DHT22;4333;48.322;14.340;2023-05-02T16:00:04;15.20;99.90
8591;DHT22;4333;48.322;14.340;2023-05-02T16:02:33;15.20;99.90
8591;DHT22;4333;48.322;14.340;2023-05-02T16:04:58;15.20;99.90
8591;DHT22;4333;48.322;14.340;2023-05-02T16:07:27;15.00;99.90
8591;DHT22;4333;48.322;14.340;2023-05-02T16:09:52;14.80;99.90
8591;DHT22;4333;48.322;14.340;2023-05-02T16:12:18;14.60;99.90
8591;DHT22;4333;48.322;14.340;2023-05-02T16:14:44;14.60;99.90
8591;DHT22;4333;48.322;14.340;2023-05-02T16:17:12;14.60;99.90
8591;DHT22;4333;48.322;14.340;2023-05-02T16:19:38;14.50;99.90
8591;DHT22;4333;48.322;14.340;2023-05-02T16:22:08;14.50;99.90
8591;DHT22;4333;48.322;14.340;2023-05-02T16:24:34;14.40;99.90
8591;DHT22;4333;48.322;14.340;2023-05-02T16:26:59;14.50;99.90
8591;DHT22;4333;48.322;14.340;2023-05-02T16:29:26;14.50;99.90
8591;DHT22;4333;48.322;14.340;2023-05-02T16:31:51;14.60;99.90
8591;DHT22;4333;48.322;14.340;2023-05-02T16:34:17;14.60;99.90
8591;DHT22;4333;48.322;14.340;2023-05-02T16:36:43;14.60;99.90
8591;DHT22;4333;48.322;14.340;2023-05-02T16:39:11;14.50;99.90
8591;DHT22;4333;48.322;14.340;2023-05-02T16:41:36;14.50;99.90